Time;durP1;ratioP1;P1;durP2;ratioP2;P2;SDS_P1;SDS_P2;PMS_P1;PMS_P2;Temp;Humidity;BMP_temperature;BMP_pressure;BME280_temperature;BME280_humidity;BME280_pressure;Samples;Min_cycle;Max_cycle;Signal;HPM_P1;HPM_P2
2023/07/10 00:00:59;;;;;;;6.13;2.55;;;;;;;19.33;78.75;101893.63;5078965;28;20056;-93
2023/07/10 00:03:28;;;;;;;4.70;2.65;;;;;;;19.29;78.43;101886.81;5082731;28;20024;-95
2023/07/10 00:05:56;;;;;;;6.72;2.70;;;;;;;19.25;78.71;101886.94;5066596;28;20045;-95
2023/07/10 00:08:24;;;;;;;5.03;2.72;;;;;;;19.24;78.58;101882.59;5080216;28;20024;-94
2023/07/10 00:10:53;;;;;;;6.18;2.70;;;;;;;19.25;78.52;101886.06;5079111;28;20040;-94
2023/07/10 00:13:21;;;;;;;6.35;2.80;;;;;;;19.23;78.83;101880.88;5081038;28;20020;-94
2023/07/10 00:15:51;;;;;;;9.63;3.30;;;;;;;19.24;78.83;101889.63;5082146;28;20043;-95
2023/07/10 00:18:23;;;;;;;6.30;3.10;;;;;;;19.18;79.00;101890.78;5090689;28;20043;-96
2023/07/10 00:20:49;;;;;;;10.25;3.33;;;;;;;19.18;78.85;101892.56;5089161;28;20325;-94
2023/07/10 00:24:20;;;;;;;7.53;3.67;;;;;;;19.13;78.99;101895.38;5068057;28;20025;-94
2023/07/10 00:26:24;;;;;;;6.35;3.13;;;;;;;19.12;79.02;101896.34;5073160;28;20024;-95
2023/07/10 00:29:02;;;;;;;6.60;3.20;;;;;;;19.10;79.26;101893.75;5083615;28;20055;-95
2023/07/10 00:31:27;;;;;;;9.07;3.75;;;;;;;19.07;79.32;101885.97;5066045;28;20016;-94
2023/07/10 00:33:57;;;;;;;6.75;3.40;;;;;;;19.08;79.52;101892.13;5082899;28;20032;-95
2023/07/10 00:36:31;;;;;;;7.00;3.25;;;;;;;19.06;79.44;101897.44;5078765;28;20024;-96
2023/07/10 00:39:01;;;;;;;6.57;3.63;;;;;;;19.06;79.93;101889.53;5086134;28;20494;-95
2023/07/10 00:41:34;;;;;;;7.55;3.45;;;;;;;19.08;79.80;101890.31;5045942;28;20467;-95
2023/07/10 00:44:03;;;;;;;8.70;3.80;;;;;;;19.09;78.97;101885.94;5086734;28;20091;-95
2023/07/10 00:46:39;;;;;;;8.60;3.80;;;;;;;19.06;79.28;101883.41;5072479;28;20020;-94
2023/07/10 00:49:17;;;;;;;9.57;3.55;;;;;;;19.03;79.37;101884.44;5086228;28;20023;-94
2023/07/10 00:51:54;;;;;;;7.55;3.97;;;;;;;19.00;79.78;101886.31;5088719;28;20020;-95
2023/07/10 00:55:09;;;;;;;6.95;3.65;;;;;;;18.97;79.27;101887.31;5092939;28;20020;-94
2023/07/10 00:58:11;;;;;;;;;;;;;;;;;;;;;
2023/07/10 01:00:33;;;;;;;;;;;;;;;18.93;78.10;101912.94;5067005;28;20031;-96
2023/07/10 01:03:25;;;;;;;;;;;;;;;;;;;;;
2023/07/10 01:06:14;;;;;;;;;;;;;;;;;;;;;
2023/07/10 01:09:13;;;;;;;7.72;3.72;;;;;;;18.73;81.06;101907.69;5086581;28;20111;-94
2023/07/10 01:12:21;;;;;;;;;;;;;;;;;;;;;
2023/07/10 01:15:55;;;;;;;9.55;4.07;;;;;;;18.68;80.02;101899.09;5086805;28;20554;-94
2023/07/10 01:18:09;;;;;;;;;;;;;;;;;;;;;
2023/07/10 01:20:38;;;;;;;8.13;3.50;;;;;;;18.61;80.95;101894.13;5095246;28;20052;-95
2023/07/10 01:23:14;;;;;;;7.00;3.38;;;;;;;18.59;80.68;101898.59;5084453;28;20024;-96
2023/07/10 01:26:27;;;;;;;6.40;3.30;;;;;;;18.56;80.30;101904.00;5061645;28;20028;-96
2023/07/10 01:28:56;;;;;;;7.85;3.05;;;;;;;18.50;80.40;101898.97;5089106;28;20055;-95
2023/07/10 01:31:41;;;;;;;5.18;2.90;;;;;;;18.45;80.78;101914.97;5092359;28;20035;-95
2023/07/10 01:34:36;;;;;;;6.18;2.90;;;;;;;18.43;80.08;101913.34;5089296;28;20027;-95
2023/07/10 01:37:07;;;;;;;5.13;2.78;;;;;;;18.41;80.59;101909.91;5095816;28;20031;-95
2023/07/10 01:40:04;;;;;;;;;;;;;;;;;;;;;
2023/07/10 01:42:41;;;;;;;5.75;2.80;;;;;;;18.36;80.38;101896.91;5093820;28;20145;-95
2023/07/10 01:45:16;;;;;;;5.28;2.67;;;;;;;18.32;80.43;101896.19;5091046;28;20052;-94
2023/07/10 01:47:54;;;;;;;5.20;2.80;;;;;;;18.31;80.83;101894.47;5087697;28;20043;-94
2023/07/10 01:50:37;;;;;;;4.68;2.58;;;;;;;18.28;79.95;101897.22;5087668;28;20016;-94
2023/07/10 01:53:13;;;;;;;4.75;2.78;;;;;;;18.28;80.28;101888.47;5091263;28;20025;-95
2023/07/10 01:55:52;;;;;;;5.72;2.60;;;;;;;18.28;80.41;101896.38;5088345;28;20028;-93
2023/07/10 01:58:56;;;;;;;;;;;;;;;;;;;;;
2023/07/10 02:01:55;;;;;;;;;;;;;;;;;;;;;
2023/07/10 02:04:56;;;;;;;3.95;2.33;;;;;;;18.26;79.39;101912.25;5084802;28;20079;-94
2023/07/10 02:07:37;;;;;;;;;;;;;;;;;;;;;
2023/07/10 02:10:12;;;;;;;;;;;;;;;;;;;;;
2023/07/10 02:12:44;;;;;;;4.72;2.00;;;;;;;18.23;79.52;101896.59;5088241;28;20173;-94
2023/07/10 02:22:59;;;;;;;4.45;1.88;;;;;;;18.25;78.88;101905.28;5085692;28;20024;-94
2023/07/10 02:25:37;;;;;;;3.50;1.90;;;;;;;18.25;78.27;101902.66;5095721;28;20066;-94
2023/07/10 02:31:01;;;;;;;;;;;;;;;;;;;;;
2023/07/10 02:34:17;;;;;;;;;;;;;;;;;;;;;
2023/07/10 02:36:46;;;;;;;3.90;1.80;;;;;;;18.31;80.03;101915.53;5088820;28;20088;-94
2023/07/10 02:39:32;;;;;;;;;;;;;;;;;;;;;
2023/07/10 02:45:50;;;;;;;;;;;;;;;;;;;;;
2023/07/10 02:48:56;;;;;;;;;;;;;;;;;;;;;
2023/07/10 02:54:53;;;;;;;4.38;2.10;;;;;;;18.28;80.44;101920.09;5054690;28;20395;-95
2023/07/10 04:12:09;;;;;;;4.85;3.10;;;;;;;17.86;80.32;101988.38;4757964;23;20045;-95
2023/07/10 04:15:00;;;;;;;5.20;3.08;;;;;;;17.85;80.11;101985.81;5041247;28;20034;-96
2023/07/10 04:17:33;;;;;;;6.63;3.03;;;;;;;17.84;80.53;101978.84;5008524;28;20026;-96
2023/07/10 04:20:39;;;;;;;;;;;;;;;;;;;;;
2023/07/10 04:26:41;;;;;;;6.72;3.22;;;;;;;17.85;80.63;101991.94;5046115;28;20063;-93
2023/07/10 04:29:09;;;;;;;4.75;3.20;;;;;;;17.84;80.98;101994.63;5033818;28;20063;-95
2023/07/10 04:31:35;;;;;;;6.43;3.78;;;;;;;17.84;81.25;101989.38;5047319;28;20033;-93
2023/07/10 04:34:03;;;;;;;8.10;4.20;;;;;;;17.85;81.59;101988.44;5051442;28;20082;-95
2023/07/10 04:36:28;;;;;;;6.15;3.90;;;;;;;17.86;81.86;101987.53;5050113;28;20033;-92
2023/07/10 04:39:19;;;;;;;;;;;;;;;;;;;;;
2023/07/10 04:41:45;;;;;;;7.32;4.15;;;;;;;17.89;81.80;101985.63;5034738;28;20132;-94
2023/07/10 04:44:10;;;;;;;7.10;4.38;;;;;;;17.93;81.60;101991.66;5033685;28;20120;-91
2023/07/10 04:46:41;;;;;;;6.28;4.55;;;;;;;17.95;81.77;101984.53;5036841;28;20424;-94
2023/07/10 04:49:06;;;;;;;6.70;4.57;;;;;;;17.98;81.56;101992.34;5039300;28;20029;-93
2023/07/10 04:51:31;;;;;;;8.52;4.82;;;;;;;18.02;81.68;101996.59;5034146;28;20060;-91
2023/07/10 04:53:57;;;;;;;6.72;4.45;;;;;;;18.05;82.01;101993.84;5032446;28;20052;-94
2023/07/10 04:56:22;;;;;;;8.98;4.68;;;;;;;18.09;81.70;101991.09;5015228;28;20016;-93
2023/07/10 04:58:52;;;;;;;8.52;4.82;;;;;;;18.12;81.71;101997.09;5031603;28;20085;-93
2023/07/10 05:01:29;;;;;;;5.90;3.97;;;;;;;18.13;81.15;101997.94;5040646;28;20449;-95
2023/07/10 05:03:56;;;;;;;6.22;4.35;;;;;;;18.16;80.66;102005.72;5034781;28;20037;-92
2023/07/10 05:06:22;;;;;;;7.40;4.43;;;;;;;18.17;81.17;102003.03;5166809;22;20085;-95
2023/07/10 05:08:47;;;;;;;9.27;4.50;;;;;;;18.18;80.77;102009.16;4997459;28;20018;-91
2023/07/10 05:11:25;;;;;;;6.28;4.00;;;;;;;18.15;80.67;102006.63;4991245;28;20109;-94
2023/07/10 05:13:53;;;;;;;6.38;4.07;;;;;;;18.16;80.93;102011.00;4994112;28;20030;-94
2023/07/10 05:19:06;;;;;;;7.35;3.83;;;;;;;18.17;80.82;102013.59;5119629;23;20049;-94
2023/07/10 05:32:19;;;;;;;5.82;3.28;;;;;;;18.29;80.02;102017.47;5002523;28;20034;-93
2023/07/10 05:37:17;;;;;;;5.05;3.20;;;;;;;18.34;79.53;102020.81;4998177;28;20379;-93
2023/07/10 05:40:03;;;;;;;7.43;3.20;;;;;;;18.37;79.42;102025.09;4998628;28;20034;-94
2023/07/10 05:42:28;;;;;;;5.40;3.10;;;;;;;18.35;79.49;102027.78;5138809;23;20075;-95
2023/07/10 05:50:04;;;;;;;5.28;3.00;;;;;;;18.42;79.97;102017.84;5713333;23;20412;-94
2023/07/10 05:52:30;;;;;;;5.93;3.05;;;;;;;18.47;80.30;102020.31;5035994;28;20016;-94
2023/07/10 05:54:55;;;;;;;5.07;2.50;;;;;;;18.53;78.59;102022.69;5054761;28;20498;-92
2023/07/10 05:57:23;;;;;;;4.75;2.72;;;;;;;18.51;79.58;102024.53;5055799;28;20029;-94
2023/07/10 05:59:48;;;;;;;5.22;3.05;;;;;;;18.53;79.31;102014.78;5049349;28;20060;-92
2023/07/10 06:02:14;;;;;;;5.85;3.28;;;;;;;18.58;79.25;102020.75;5052772;28;20060;-91
2023/07/10 06:04:39;;;;;;;7.00;3.08;;;;;;;18.64;78.26;102020.47;5049566;28;20380;-91
2023/07/10 06:07:05;;;;;;;5.55;3.08;;;;;;;18.68;78.38;102023.00;5047947;28;20029;-92
2023/07/10 06:09:31;;;;;;;5.40;2.70;;;;;;;18.70;77.83;102021.16;5048361;28;20047;-88
2023/07/10 06:11:57;;;;;;;7.93;3.13;;;;;;;18.68;77.61;102017.72;5057576;28;20021;-93
2023/07/10 06:14:22;;;;;;;7.15;2.78;;;;;;;18.68;77.48;102025.63;5051105;28;20036;-91
2023/07/10 06:16:47;;;;;;;5.93;2.92;;;;;;;18.71;77.28;102025.50;5056498;28;20039;-95
2023/07/10 06:19:13;;;;;;;5.15;2.80;;;;;;;18.70;77.66;102027.31;5055389;28;20032;-92
2023/07/10 06:21:38;;;;;;;8.75;3.42;;;;;;;18.71;77.13;102022.88;5560549;22;20844;-90
2023/07/10 06:24:04;;;;;;;5.28;2.83;;;;;;;18.77;77.76;102027.91;5034100;28;20032;-91
2023/07/10 06:26:48;;;;;;;;;;;;;;;;;;;;;
2023/07/10 06:29:21;;;;;;;4.70;2.55;;;;;;;18.87;76.75;102034.50;5039349;28;20112;-94
2023/07/10 06:32:13;;;;;;;5.63;2.60;;;;;;;18.93;75.69;102039.53;5280262;22;20064;-95
2023/07/10 06:34:38;;;;;;;5.15;2.47;;;;;;;18.94;75.31;102041.28;5022997;28;20452;-95
2023/07/10 06:37:27;;;;;;;6.60;2.75;;;;;;;18.99;75.39;102048.09;5017134;28;20068;-95
2023/07/10 06:40:20;;;;;;;;;;;;;;;;;;;;;
2023/07/10 06:43:42;;;;;;;4.55;2.33;;;;;;;19.11;75.22;102050.25;5068306;28;20072;-91
2023/07/10 06:46:44;;;;;;;;;;;;;;;;;;;;;
2023/07/10 06:49:09;;;;;;;;;;;;;;;19.21;74.85;102056.84;5119482;22;20075;-94
2023/07/10 06:51:35;;;;;;;6.38;2.47;;;;;;;19.21;72.82;102056.84;5048358;28;19916;-93
2023/07/10 06:54:03;;;;;;;6.47;2.53;;;;;;;19.24;72.45;102053.19;5057817;28;20036;-93
2023/07/10 06:56:29;;;;;;;6.63;2.78;;;;;;;19.28;72.82;102060.06;5044029;28;20116;-94
2023/07/10 06:59:09;;;;;;;;;;;;;;;;;;;;;
2023/07/10 07:01:35;;;;;;;6.50;2.63;;;;;;;19.33;72.41;102062.50;5046603;28;20128;-95
2023/07/10 07:04:03;;;;;;;6.53;3.08;;;;;;;19.32;72.42;102061.66;5052479;28;20499;-94
2023/07/10 07:06:38;;;;;;;;;;;;;;;;;;;;;
2023/07/10 07:09:04;;;;;;;6.65;2.60;;;;;;;19.39;71.41;102059.59;5208101;23;20122;-95
2023/07/10 07:25:30;;;;;;;;;;;;;;;;;;;;;
2023/07/10 07:30:32;;;;;;;5.57;2.17;;;;;;;19.47;69.60;102057.47;5086968;22;20057;-94
2023/07/10 07:35:58;;;;;;;7.15;2.22;;;;;;;19.59;68.02;102063.16;5286654;23;20117;-95
2023/07/10 07:38:41;;;;;;;;;;;;;;;;;;;;;
2023/07/10 07:41:07;;;;;;;5.03;1.98;;;;;;;19.67;68.73;102071.56;5037916;28;20113;-92
2023/07/10 07:43:35;;;;;;;5.30;2.42;;;;;;;19.69;69.55;102075.00;5027800;28;20119;-94
2023/07/10 07:46:00;;;;;;;5.38;2.25;;;;;;;19.74;68.75;102073.03;5036227;28;20025;-92
2023/07/10 07:48:30;;;;;;;7.32;2.58;;;;;;;19.80;68.34;102066.59;5033680;28;20043;-93
2023/07/10 07:51:04;;;;;;;5.47;2.47;;;;;;;19.86;68.64;102068.97;5034401;28;20503;-95
2023/07/10 07:53:54;;;;;;;6.43;2.67;;;;;;;19.93;68.85;102074.88;5034146;28;20026;-93
2023/07/10 07:59:44;;;;;;;6.15;2.90;;;;;;;20.05;67.81;102074.28;5037627;28;20056;-95
2023/07/10 08:02:17;;;;;;;5.60;2.38;;;;;;;20.06;67.57;102078.66;5026520;28;20037;-95
2023/07/10 08:08:13;;;;;;;7.85;2.80;;;;;;;20.10;69.10;102066.16;5214559;22;20037;-93
2023/07/10 08:10:46;;;;;;;7.57;2.83;;;;;;;;;;5009529;28;20073;-93
2023/07/10 08:13:31;;;;;;;4.25;2.55;;;;;;;20.23;68.66;102058.50;5036358;28;20115;-94
2023/07/10 08:15:59;;;;;;;5.20;2.60;;;;;;;20.27;66.62;102057.44;5033019;28;20055;-94
2023/07/10 08:18:38;;;;;;;4.90;2.40;;;;;;;20.32;66.02;102055.44;5026159;28;20041;-92
2023/07/10 08:21:05;;;;;;;7.88;2.50;;;;;;;20.34;66.62;102053.56;5181215;23;20049;-94
2023/07/10 08:23:36;;;;;;;6.05;1.90;;;;;;;20.37;65.07;102050.78;5036669;28;20045;-95
2023/07/10 08:26:12;;;;;;;;;;;;;;;;;;;;;
2023/07/10 08:28:38;;;;;;;4.22;2.05;;;;;;;20.47;65.65;102053.84;5022776;28;20068;-96
2023/07/10 08:31:08;;;;;;;4.68;1.70;;;;;;;20.51;63.95;102058.06;5025494;28;20528;-96
2023/07/10 08:33:42;;;;;;;5.90;1.80;;;;;;;20.54;63.46;102051.75;5026755;28;20047;-94
2023/07/10 08:36:09;;;;;;;5.65;1.40;;;;;;;20.58;63.65;102061.25;5025024;28;20025;-95
2023/07/10 08:38:36;;;;;;;5.38;1.77;;;;;;;20.57;62.33;102057.75;5006055;28;20037;-94
2023/07/10 08:49:25;;;;;;;;;;;;;;;;;;;;;
2023/07/10 08:55:29;;;;;;;;;;;;;;;;;;;;;
2023/07/10 09:01:17;;;;;;;3.97;1.42;;;;;;;20.91;62.62;102060.53;5101758;22;20058;-96
2023/07/10 09:03:59;;;;;;;5.43;1.60;;;;;;;20.89;61.00;102057.13;4942254;29;20043;-95
2023/07/10 09:06:36;;;;;;;5.28;1.88;;;;;;;20.92;61.73;102055.16;5039064;23;21248;-94
2023/07/10 09:09:55;;;;;;;6.25;2.13;;;;;;;20.98;62.09;102056.66;5164218;23;20045;-94
2023/07/10 09:16:44;;;;;;;;;;;;;;;;;;;;;
2023/07/10 09:26:50;;;;;;;3.28;1.60;;;;;;;21.22;61.09;102058.97;5022416;28;20077;-94
2023/07/10 09:58:48;;;;;;;3.70;1.23;;;;;;;21.78;57.46;102056.94;5594931;23;20049;-95
2023/07/10 10:01:33;;;;;;;4.97;1.35;;;;;;;21.85;58.55;102052.19;5036126;28;20046;-94
2023/07/10 10:16:50;;;;;;;;;;;;;;;;;;;;;
2023/07/10 10:19:29;;;;;;;5.07;1.27;;;;;;;22.38;54.74;102049.28;4893837;29;20064;-96
2023/07/10 10:21:59;;;;;;;6.28;1.60;;;;;;;22.40;53.49;102045.59;4889636;29;20021;-95
2023/07/10 10:24:32;;;;;;;4.03;1.45;;;;;;;22.45;52.85;102044.53;4901217;29;20035;-94
2023/07/10 10:27:06;;;;;;;4.30;1.20;;;;;;;22.50;55.35;102043.31;4958990;28;20045;-94
2023/07/10 10:30:37;;;;;;;;;;;;;;;;;;;;;
2023/07/10 10:33:03;;;;;;;;;;;;;;;22.67;56.62;102052.09;5007861;28;20117;-96
2023/07/10 10:35:41;;;;;;;4.55;1.65;;;;;;;22.67;54.92;102060.06;4996498;28;19952;-93
2023/07/10 10:38:44;;;;;;;4.57;1.48;;;;;;;22.61;55.72;102055.97;5007646;28;20013;-94
2023/07/10 10:41:37;;;;;;;5.18;1.75;;;;;;;22.49;55.29;102054.88;4985256;28;20041;-92
2023/07/10 10:44:15;;;;;;;4.30;1.50;;;;;;;22.36;56.27;102054.66;5009287;28;20022;-93
2023/07/10 10:46:52;;;;;;;4.28;1.75;;;;;;;22.33;55.25;102046.88;5007509;28;20061;-93
2023/07/10 10:49:54;;;;;;;5.28;1.48;;;;;;;22.40;56.10;102052.69;5003108;28;20026;-93
2023/07/10 10:53:00;;;;;;;5.63;1.58;;;;;;;22.43;56.76;102057.84;4988666;28;20042;-94
2023/07/10 11:09:10;;;;;;;3.97;1.30;;;;;;;22.92;53.25;102059.47;5661025;23;20045;-93
2023/07/10 11:12:02;;;;;;;5.22;1.33;;;;;;;22.98;52.59;102063.56;5035363;28;20022;-93
2023/07/10 11:17:14;;;;;;;6.97;1.55;;;;;;;23.20;52.15;102063.13;5065013;23;20413;-92
2023/07/10 11:53:31;;;;;;;6.60;1.48;;;;;;;23.67;49.81;102045.28;6102501;23;20021;-91
2023/07/10 12:09:09;;;;;;;3.70;1.20;;;;;;;23.76;50.53;102033.22;6005050;23;20005;-95
2023/07/10 12:11:57;;;;;;;;;;;;;;;;;;;;;
2023/07/10 12:51:52;;;;;;;2.83;0.93;;;;;;;23.70;48.09;101997.25;5479648;23;20092;-94
2023/07/10 12:54:28;;;;;;;2.78;1.15;;;;;;;23.75;46.99;101997.81;4989441;28;20134;-96
2023/07/10 13:04:50;;;;;;;;;;;;;;;;;;;;;
2023/07/10 13:38:25;;;;;;;2.80;0.93;;;;;;;24.39;42.20;101969.81;5007899;28;20050;-93
2023/07/10 13:40:50;;;;;;;5.70;1.30;;;;;;;24.53;43.35;101979.53;4993159;28;20468;-94
2023/07/10 13:43:21;;;;;;;5.65;1.20;;;;;;;24.60;43.83;101979.97;4991051;28;20486;-94
2023/07/10 13:56:44;;;;;;;3.65;1.15;;;;;;;24.83;43.82;101970.44;6037254;22;21082;-95
2023/07/10 14:01:44;;;;;;;3.05;1.30;;;;;;;24.92;41.42;101964.50;6113108;23;20111;-92
2023/07/10 14:22:34;;;;;;;3.45;1.10;;;;;;;25.48;41.80;101965.13;5651744;23;20054;-93
2023/07/10 14:24:59;;;;;;;3.80;1.35;;;;;;;25.53;41.04;101969.16;5012281;28;20050;-93
2023/07/10 14:27:27;;;;;;;4.63;1.33;;;;;;;25.50;41.26;101964.03;5195362;22;20054;-94
2023/07/10 14:40:44;;;;;;;;;;;;;;;;;;;;;
2023/07/10 14:45:50;;;;;;;3.70;1.27;;;;;;;25.80;40.95;101941.44;5027835;28;20040;-94
2023/07/10 14:51:03;;;;;;;;;;;;;;;;;;;;;
2023/07/10 15:41:02;;;;;;;8.70;1.27;;;;;;;26.93;39.38;101868.09;5142240;23;20100;-95
2023/07/10 16:45:02;;;;;;;1.90;0.90;;;;;;;29.95;31.19;101812.88;5291065;23;20089;-96
2023/07/10 17:00:28;;;;;;;1.55;0.80;;;;;;;30.84;29.23;101804.53;5731032;23;21145;-96
2023/07/10 17:22:34;;;;;;;2.85;0.80;;;;;;;36.42;23.02;101781.53;4946175;28;20047;-94
2023/07/10 17:30:17;;;;;;;4.85;1.23;;;;;;;36.65;25.05;101777.00;5963358;23;20045;-90
2023/07/10 17:33:27;;;;;;;3.58;0.93;;;;;;;36.92;26.05;101772.72;5375287;23;20107;-93
2023/07/10 17:36:07;;;;;;;3.85;1.10;;;;;;;37.11;22.29;101776.72;4968805;28;20062;-95
2023/07/10 17:38:41;;;;;;;1.90;1.02;;;;;;;36.97;22.71;101767.59;4956203;29;20032;-92
2023/07/10 17:46:19;;;;;;;2.17;1.02;;;;;;;36.67;22.21;101759.53;5368769;23;20258;-95
2023/07/10 17:48:59;;;;;;;2.30;1.20;;;;;;;36.52;24.77;101765.00;5562353;23;20138;-94
2023/07/10 17:51:33;;;;;;;3.33;1.27;;;;;;;36.15;24.39;101764.06;5024919;28;20029;-96
2023/07/10 18:05:23;;;;;;;;;;;;;;;;;;;;;
2023/07/10 18:10:16;;;;;;;3.08;1.10;;;;;;;34.55;26.40;101760.28;5981892;22;20072;-95
2023/07/10 18:12:41;;;;;;;2.50;0.90;;;;;;;34.89;26.09;101757.19;5030146;28;20022;-95
2023/07/10 18:20:19;;;;;;;5.13;1.40;;;;;;;34.16;25.43;101762.78;5654302;23;20282;-95
2023/07/10 18:27:51;;;;;;;1.75;0.80;;;;;;;31.70;29.97;101760.16;5072095;23;20180;-93
2023/07/10 18:30:16;;;;;;;2.88;1.10;;;;;;;31.06;30.82;101759.41;4973174;28;20027;-96
2023/07/10 18:33:10;;;;;;;2.88;1.20;;;;;;;30.54;32.09;101758.16;4976711;28;20069;-96
2023/07/10 18:36:00;;;;;;;3.95;1.00;;;;;;;30.04;32.70;101754.81;4981489;28;20043;-92
2023/07/10 18:38:29;;;;;;;3.05;1.10;;;;;;;29.67;33.22;101755.56;4970625;28;20030;-94
2023/07/10 18:40:56;;;;;;;4.47;1.25;;;;;;;29.36;33.79;101751.22;4947662;28;20051;-94
2023/07/10 18:43:27;;;;;;;4.10;1.10;;;;;;;29.07;34.50;101749.34;4966641;28;20027;-95
2023/07/10 18:45:52;;;;;;;2.83;1.00;;;;;;;28.88;37.05;101742.13;4966455;28;20110;-92
2023/07/10 18:48:25;;;;;;;5.13;1.40;;;;;;;28.72;39.14;101741.75;4965501;28;20042;-91
2023/07/10 18:50:58;;;;;;;4.07;1.33;;;;;;;28.55;39.94;101746.78;4967779;28;20050;-92
2023/07/10 18:53:27;;;;;;;6.55;1.30;;;;;;;28.35;41.14;101742.38;4973230;28;20027;-91
2023/07/10 18:55:52;;;;;;;4.65;1.20;;;;;;;28.18;41.60;101744.69;4972298;28;20057;-92
2023/07/10 18:58:23;;;;;;;2.00;1.00;;;;;;;28.00;42.29;101745.28;4949944;28;20719;-91
2023/07/10 19:00:52;;;;;;;2.13;1.20;;;;;;;27.85;45.35;101744.75;4968474;28;20394;-91
2023/07/10 19:03:17;;;;;;;2.03;1.17;;;;;;;27.71;47.25;101743.25;4965258;28;20493;-93
2023/07/10 19:05:48;;;;;;;5.38;1.30;;;;;;;27.61;46.88;101731.66;4967558;28;20034;-94
2023/07/10 19:26:22;;;;;;;3.63;1.48;;;;;;;26.26;49.32;101714.97;5068796;23;20058;-94
2023/07/10 19:31:23;;;;;;;3.83;2.00;;;;;;;25.97;51.84;101710.06;5942496;23;20910;-93
2023/07/10 19:33:49;;;;;;;5.32;2.08;;;;;;;25.82;50.19;101712.94;5032378;28;20422;-95
2023/07/10 19:36:26;;;;;;;6.53;2.42;;;;;;;25.68;49.50;101706.03;5025064;28;20045;-95
2023/07/10 19:46:37;;;;;;;4.63;2.70;;;;;;;25.17;55.22;101707.16;5774763;23;20911;-95
2023/07/10 19:51:51;;;;;;;;;;;;;;;;;;;;;
2023/07/10 19:54:53;;;;;;;;;;;;;;;;;;;;;
2023/07/10 19:57:37;;;;;;;5.85;3.13;;;;;;;24.70;54.85;101699.88;5016143;28;20033;-94
2023/07/10 20:00:16;;;;;;;5.05;3.05;;;;;;;24.57;56.74;101699.03;4995038;28;20036;-94
2023/07/10 20:07:00;;;;;;;5.80;2.50;;;;;;;24.34;57.11;101701.53;4908279;29;20072;-93
2023/07/10 20:09:26;;;;;;;5.30;2.30;;;;;;;24.24;58.47;101700.50;4886939;29;20617;-93
2023/07/10 20:11:51;;;;;;;4.43;2.00;;;;;;;24.13;57.87;101695.06;4988816;28;20073;-93
2023/07/10 20:14:16;;;;;;;6.85;2.30;;;;;;;24.04;57.96;101691.22;4999888;28;20069;-94
2023/07/10 20:16:46;;;;;;;4.65;2.58;;;;;;;23.95;58.15;101698.88;5003386;28;20068;-94
2023/07/10 20:19:15;;;;;;;5.28;2.70;;;;;;;23.87;58.51;101695.88;4985352;28;20040;-94
2023/07/10 20:21:41;;;;;;;6.50;2.58;;;;;;;23.79;57.71;101693.75;5001679;28;20192;-94
2023/07/10 20:24:18;;;;;;;5.72;2.38;;;;;;;23.69;55.97;101689.16;5001960;28;20444;-93
2023/07/10 20:26:45;;;;;;;4.03;2.10;;;;;;;23.62;58.74;101680.75;4985845;28;20033;-92
2023/07/10 20:29:20;;;;;;;5.70;2.28;;;;;;;23.50;58.00;101687.75;5000006;28;20026;-93
2023/07/10 20:31:47;;;;;;;5.15;2.10;;;;;;;23.39;56.33;101677.88;4999839;28;20053;-93
2023/07/10 20:34:13;;;;;;;7.55;2.50;;;;;;;23.30;56.64;101678.47;5000039;28;20036;-93
2023/07/10 20:36:40;;;;;;;7.07;2.50;;;;;;;23.21;56.29;101671.13;5116234;23;20061;-93
2023/07/10 20:39:17;;;;;;;9.60;2.92;;;;;;;23.15;58.13;101675.00;5012540;28;20508;-94
2023/07/10 20:41:43;;;;;;;7.70;2.58;;;;;;;23.01;58.24;101675.91;5012681;28;20030;-93
2023/07/10 20:44:13;;;;;;;5.85;2.40;;;;;;;22.89;58.95;101673.09;4993279;28;20065;-92
2023/07/10 20:46:42;;;;;;;7.70;2.33;;;;;;;22.84;60.25;101677.00;5018156;28;20041;-93
2023/07/10 20:49:17;;;;;;;3.35;1.88;;;;;;;22.74;59.42;101668.78;4994651;28;20036;-93
2023/07/10 20:51:43;;;;;;;4.85;1.60;;;;;;;22.63;60.39;101671.28;5013143;28;20044;-94
2023/07/10 20:54:11;;;;;;;5.57;1.92;;;;;;;22.52;62.31;101669.31;5011545;28;20033;-93
2023/07/10 20:56:37;;;;;;;6.38;2.08;;;;;;;22.46;62.17;101675.84;5014722;28;21210;-94
2023/07/10 20:59:13;;;;;;;6.18;2.05;;;;;;;22.38;62.86;101667.50;5014829;28;20037;-92
2023/07/10 21:01:39;;;;;;;3.75;1.98;;;;;;;22.28;63.37;101665.44;5015249;28;20025;-92
2023/07/10 21:04:04;;;;;;;4.05;2.10;;;;;;;22.21;62.01;101666.75;4990745;28;20486;-93
2023/07/10 21:06:33;;;;;;;5.25;1.75;;;;;;;22.15;62.70;101664.50;5017902;28;20025;-93
2023/07/10 21:09:00;;;;;;;3.75;1.75;;;;;;;22.07;62.00;101666.75;5014155;28;21399;-94
2023/07/10 21:11:31;;;;;;;4.13;1.85;;;;;;;22.02;62.83;101661.75;5011251;28;20026;-94
2023/07/10 21:13:56;;;;;;;4.07;1.92;;;;;;;21.95;64.77;101669.22;5014625;28;20108;-94
2023/07/10 21:16:25;;;;;;;4.57;2.08;;;;;;;21.88;65.61;101659.09;5012528;28;20655;-90
2023/07/10 21:18:51;;;;;;;3.90;2.17;;;;;;;21.79;65.07;101652.56;5005998;28;20017;-91
2023/07/10 21:21:17;;;;;;;4.65;2.08;;;;;;;21.73;65.97;101669.66;5016003;28;20530;-92
2023/07/10 21:23:43;;;;;;;5.40;2.20;;;;;;;21.65;65.79;101661.31;5019166;28;20354;-95
2023/07/10 21:26:12;;;;;;;4.47;2.42;;;;;;;21.59;65.58;101662.50;5016546;28;20044;-93
2023/07/10 21:28:44;;;;;;;3.97;2.17;;;;;;;21.53;63.92;101657.56;5013182;28;20084;-92
2023/07/10 21:31:24;;;;;;;5.82;2.42;;;;;;;21.47;64.58;101655.31;5010733;28;20040;-92
2023/07/10 21:33:51;;;;;;;6.35;2.50;;;;;;;21.43;65.23;101654.63;5012030;28;20022;-92
2023/07/10 21:36:16;;;;;;;4.97;2.47;;;;;;;21.40;63.84;101659.25;5010650;28;20034;-93
2023/07/10 21:38:42;;;;;;;3.72;2.28;;;;;;;21.36;66.94;101651.47;4997050;28;20040;-93
2023/07/10 21:41:18;;;;;;;5.35;2.50;;;;;;;21.33;65.23;101654.31;5015515;28;20030;-94
2023/07/10 21:43:46;;;;;;;4.63;2.15;;;;;;;21.28;65.54;101653.72;5004831;28;20396;-93
2023/07/10 21:46:19;;;;;;;4.78;2.40;;;;;;;21.21;65.91;101653.22;4995705;28;20428;-94
2023/07/10 21:48:45;;;;;;;5.28;2.55;;;;;;;21.15;65.01;101653.59;4999769;28;20029;-91
2023/07/10 21:51:13;;;;;;;5.05;2.55;;;;;;;21.11;65.85;101648.56;5002678;28;20036;-94
2023/07/10 21:53:40;;;;;;;5.75;2.83;;;;;;;21.07;63.77;101654.03;5022574;28;20076;-93
2023/07/10 21:56:12;;;;;;;5.80;2.92;;;;;;;21.00;61.75;101647.41;5033674;28;20137;-92
2023/07/10 21:58:40;;;;;;;5.10;2.72;;;;;;;20.96;62.88;101642.34;5022188;28;20491;-93
2023/07/10 22:01:12;;;;;;;5.18;2.65;;;;;;;20.94;62.34;101642.44;5017202;28;20386;-93
2023/07/10 22:03:39;;;;;;;5.88;2.70;;;;;;;20.87;62.06;101636.66;5014777;28;20034;-92
2023/07/10 22:06:06;;;;;;;5.45;2.53;;;;;;;20.80;65.68;101639.72;5014193;28;20060;-91
2023/07/10 22:08:32;;;;;;;4.45;2.50;;;;;;;20.79;63.00;101645.97;5014096;28;20092;-92
2023/07/10 22:11:00;;;;;;;5.15;2.60;;;;;;;20.75;62.08;101642.63;4998126;28;20037;-92
2023/07/10 22:13:30;;;;;;;5.25;2.47;;;;;;;20.72;62.08;101643.63;4996613;28;20036;-93
2023/07/10 22:15:56;;;;;;;3.80;2.17;;;;;;;20.69;62.11;101638.50;5015209;28;20113;-92
2023/07/10 22:18:26;;;;;;;4.50;2.22;;;;;;;20.66;61.88;101637.81;5015087;28;20092;-95
2023/07/10 22:20:53;;;;;;;3.67;2.20;;;;;;;20.62;61.63;101642.44;5011702;28;20038;-92
2023/07/10 22:23:22;;;;;;;3.83;2.15;;;;;;;20.59;61.50;101632.88;5009566;28;20037;-93
2023/07/10 22:25:50;;;;;;;5.05;2.30;;;;;;;20.59;62.04;101637.31;5008878;28;20030;-92
2023/07/10 22:28:21;;;;;;;4.07;2.10;;;;;;;20.60;63.24;101637.22;5019905;28;20029;-92
2023/07/10 22:30:53;;;;;;;5.20;2.30;;;;;;;20.60;63.50;101633.72;5010398;28;20042;-94
2023/07/10 22:33:19;;;;;;;3.70;2.20;;;;;;;20.57;62.82;101633.91;5005085;28;20029;-91
2023/07/10 22:35:45;;;;;;;3.78;2.20;;;;;;;20.54;62.49;101636.72;5023124;28;20087;-92
2023/07/10 22:38:13;;;;;;;5.25;2.10;;;;;;;20.51;62.30;101628.94;5013832;28;20061;-93
2023/07/10 22:40:40;;;;;;;3.78;2.00;;;;;;;20.47;61.97;101626.50;5018796;28;20033;-91
2023/07/10 22:43:10;;;;;;;3.47;2.03;;;;;;;20.45;62.08;101630.13;5015522;28;20030;-92
2023/07/10 22:45:37;;;;;;;5.30;2.40;;;;;;;20.40;61.96;101627.75;4999136;28;20033;-92
2023/07/10 22:48:02;;;;;;;4.60;2.03;;;;;;;20.37;62.32;101621.78;5011800;28;20113;-92
2023/07/10 22:50:28;;;;;;;4.15;2.10;;;;;;;20.34;62.65;101624.59;5017545;28;20148;-92
2023/07/10 22:52:53;;;;;;;3.78;2.08;;;;;;;20.32;62.31;101624.69;5023440;28;20090;-92
2023/07/10 22:55:18;;;;;;;4.07;1.98;;;;;;;20.29;62.18;101611.66;5001686;28;20079;-93
2023/07/10 22:57:49;;;;;;;3.35;1.90;;;;;;;20.27;61.99;101616.16;5004416;28;20037;-92